createdAt,value
2022-07-25T00:01:49.418Z,99.90
2022-07-25T00:04:17.746Z,99.90
2022-07-25T00:06:45.585Z,99.90
2022-07-25T00:09:12.507Z,99.90
2022-07-25T00:11:39.419Z,99.90
2022-07-25T00:14:06.913Z,99.90
2022-07-25T00:16:34.080Z,99.90
2022-07-25T00:19:01.281Z,99.90
2022-07-25T00:21:28.370Z,99.90
2022-07-25T00:23:55.168Z,99.90
2022-07-25T00:26:21.936Z,99.90
2022-07-25T00:28:48.702Z,99.90
2022-07-25T00:31:15.552Z,99.90
2022-07-25T00:33:42.366Z,99.90
2022-07-25T00:36:10.043Z,99.90
2022-07-25T00:38:36.969Z,99.90
2022-07-25T00:41:04.593Z,99.90
2022-07-25T00:43:31.980Z,99.90
2022-07-25T00:45:59.792Z,99.90
2022-07-25T00:48:28.121Z,99.90
2022-07-25T00:50:56.338Z,99.90
2022-07-25T00:53:23.870Z,99.90
2022-07-25T00:55:51.312Z,99.90
2022-07-25T00:58:18.750Z,99.90
2022-07-25T01:00:45.844Z,99.90
2022-07-25T01:03:12.750Z,99.90
2022-07-25T01:05:39.719Z,99.90
2022-07-25T01:08:07.222Z,99.90
2022-07-25T01:10:34.144Z,99.90
2022-07-25T01:13:01.292Z,99.90
2022-07-25T01:15:28.304Z,99.90
2022-07-25T01:17:55.096Z,99.90
2022-07-25T01:20:27.246Z,99.90
2022-07-25T01:22:54.503Z,99.90
2022-07-25T01:25:21.796Z,99.90
2022-07-25T01:27:54.821Z,99.90
2022-07-25T01:30:23.544Z,99.90
2022-07-25T01:32:50.266Z,99.90
2022-07-25T01:35:17.488Z,99.90
2022-07-25T01:37:45.536Z,99.90
2022-07-25T01:40:14.063Z,99.90
2022-07-25T01:42:41.664Z,99.90
2022-07-25T01:45:09.210Z,99.90
2022-07-25T01:47:36.044Z,99.90
2022-07-25T01:50:03.209Z,99.90
2022-07-25T01:52:30.058Z,99.90
2022-07-25T01:54:56.821Z,99.90
2022-07-25T01:57:25.009Z,99.90
2022-07-25T01:59:57.647Z,99.90
2022-07-25T02:02:24.459Z,99.90
2022-07-25T02:04:51.348Z,99.90
2022-07-25T02:07:18.127Z,99.90
2022-07-25T02:09:44.922Z,99.90
2022-07-25T02:12:11.685Z,99.90
2022-07-25T02:14:38.489Z,99.90
2022-07-25T02:17:05.412Z,99.90
2022-07-25T02:19:32.612Z,99.90
2022-07-25T02:21:59.453Z,99.90
2022-07-25T02:24:26.231Z,99.90
2022-07-25T02:26:52.976Z,99.90
2022-07-25T02:29:21.824Z,99.90
2022-07-25T02:31:49.181Z,99.90
2022-07-25T02:34:16.011Z,99.90
2022-07-25T02:36:43.059Z,99.90
2022-07-25T02:39:09.887Z,99.90
2022-07-25T02:41:36.805Z,99.90
2022-07-25T02:44:04.637Z,99.90
2022-07-25T02:46:32.271Z,99.90
2022-07-25T02:48:59.233Z,99.90
2022-07-25T02:51:26.098Z,99.90
2022-07-25T02:54:08.871Z,99.90
2022-07-25T02:56:35.602Z,99.90
2022-07-25T02:59:02.424Z,99.90
2022-07-25T03:01:29.550Z,99.90
2022-07-25T03:03:56.433Z,99.90
2022-07-25T03:06:23.297Z,99.90
2022-07-25T03:08:50.036Z,99.90
2022-07-25T03:11:16.960Z,99.90
2022-07-25T03:13:43.785Z,99.90
2022-07-25T03:16:10.695Z,99.90
2022-07-25T03:18:37.479Z,99.90
2022-07-25T03:21:04.676Z,99.90
2022-07-25T03:23:31.451Z,99.90
2022-07-25T03:25:58.487Z,99.90
2022-07-25T03:28:25.306Z,99.90
2022-07-25T03:30:52.959Z,99.90
2022-07-25T03:33:19.696Z,99.90
2022-07-25T03:35:46.480Z,99.90
2022-07-25T03:38:13.343Z,99.90
2022-07-25T03:40:40.217Z,99.90
2022-07-25T03:43:06.943Z,99.90
2022-07-25T03:45:33.722Z,99.90
2022-07-25T03:48:00.638Z,99.90
2022-07-25T03:50:27.344Z,99.90
2022-07-25T03:52:54.399Z,99.90
2022-07-25T03:55:21.135Z,99.90
2022-07-25T03:57:47.851Z,99.90
2022-07-25T04:00:14.805Z,99.90
2022-07-25T04:02:41.678Z,99.90
2022-07-25T04:05:09.782Z,99.90
2022-07-25T04:07:37.350Z,99.90
2022-07-25T04:10:06.114Z,99.90
2022-07-25T04:12:32.926Z,99.90
2022-07-25T04:14:59.755Z,99.90
2022-07-25T04:17:26.517Z,99.90
2022-07-25T04:19:53.522Z,99.90
2022-07-25T04:22:20.471Z,99.90
2022-07-25T04:24:47.349Z,99.90
2022-07-25T04:27:14.090Z,99.90
2022-07-25T04:29:40.847Z,99.90
2022-07-25T04:32:07.763Z,99.90
2022-07-25T04:34:34.563Z,99.90
2022-07-25T04:37:01.245Z,99.90
2022-07-25T04:39:27.994Z,99.90
2022-07-25T04:41:54.681Z,99.90
2022-07-25T04:44:21.435Z,99.90
2022-07-25T04:46:48.161Z,99.90
2022-07-25T04:49:15.029Z,99.90
2022-07-25T04:51:41.815Z,99.90
2022-07-25T04:54:09.618Z,99.90
2022-07-25T04:56:36.744Z,99.90
2022-07-25T04:59:06.924Z,99.90
2022-07-25T05:01:34.689Z,99.90
2022-07-25T05:04:01.617Z,99.90
2022-07-25T05:06:28.476Z,99.90
2022-07-25T05:08:55.553Z,99.90
2022-07-25T05:11:22.581Z,99.90
2022-07-25T05:13:49.362Z,99.90
2022-07-25T05:16:16.445Z,99.90
2022-07-25T05:18:43.349Z,99.90
2022-07-25T05:21:12.081Z,99.90
2022-07-25T05:23:39.285Z,99.90
2022-07-25T05:26:07.082Z,99.90
2022-07-25T05:28:33.980Z,99.90
2022-07-25T05:31:01.111Z,99.90
2022-07-25T05:33:28.043Z,99.90
2022-07-25T05:35:54.968Z,99.90
2022-07-25T05:38:21.780Z,99.90
2022-07-25T05:40:49.139Z,99.90
2022-07-25T05:43:15.868Z,99.90
2022-07-25T05:45:42.575Z,99.90
2022-07-25T05:48:09.469Z,99.90
2022-07-25T05:50:39.108Z,99.90
2022-07-25T05:53:05.868Z,99.90
2022-07-25T05:55:32.632Z,99.90
2022-07-25T05:57:59.821Z,99.90
2022-07-25T06:00:29.299Z,99.90
2022-07-25T06:02:59.913Z,99.90
2022-07-25T06:05:26.770Z,99.90
2022-07-25T06:07:53.705Z,99.90
2022-07-25T06:10:21.988Z,99.90
2022-07-25T06:12:48.754Z,99.90
2022-07-25T06:15:22.477Z,99.90
2022-07-25T06:17:51.709Z,99.90
2022-07-25T06:20:18.640Z,99.90
2022-07-25T06:22:45.379Z,99.90
2022-07-25T06:25:12.664Z,99.90
2022-07-25T06:27:39.668Z,99.90
2022-07-25T06:30:18.762Z,99.90
2022-07-25T06:32:47.984Z,99.90
2022-07-25T06:35:14.902Z,99.90
2022-07-25T06:37:41.661Z,99.90
2022-07-25T06:40:10.210Z,99.90
2022-07-25T06:42:44.411Z,99.90
2022-07-25T06:45:12.295Z,99.90
2022-07-25T06:47:40.825Z,99.90
2022-07-25T06:50:11.219Z,99.90
2022-07-25T06:52:38.954Z,99.90
2022-07-25T06:55:07.692Z,99.90
2022-07-25T06:57:34.945Z,99.90
2022-07-25T07:00:02.860Z,99.90
2022-07-25T07:02:29.751Z,99.90
2022-07-25T07:04:56.434Z,99.90
2022-07-25T07:07:23.346Z,99.90
2022-07-25T07:09:50.131Z,99.90
2022-07-25T07:12:17.012Z,99.90
2022-07-25T07:14:45.172Z,99.90
2022-07-25T07:17:11.909Z,99.90
2022-07-25T07:19:44.404Z,99.90
2022-07-25T07:22:11.267Z,99.90
2022-07-25T07:24:45.137Z,99.90
2022-07-25T07:27:15.077Z,99.90
2022-07-25T07:29:45.831Z,99.90
2022-07-25T07:32:13.345Z,99.90
2022-07-25T07:34:40.272Z,99.90
2022-07-25T07:37:07.014Z,99.90
2022-07-25T07:39:33.825Z,99.90
2022-07-25T07:42:00.612Z,97.80
2022-07-25T07:44:27.376Z,95.20
2022-07-25T07:46:54.210Z,90.10
2022-07-25T07:49:21.396Z,81.10
2022-07-25T07:51:48.080Z,79.50
2022-07-25T07:54:33.627Z,70.30
2022-07-25T07:57:00.467Z,71.00
2022-07-25T07:59:27.315Z,63.50
2022-07-25T08:01:54.108Z,62.10
2022-07-25T08:04:20.894Z,57.20
2022-07-25T08:06:47.708Z,57.30
2022-07-25T08:09:14.419Z,56.00
2022-07-25T08:11:41.152Z,54.60
2022-07-25T08:14:08.346Z,54.70
2022-07-25T08:16:35.363Z,54.00
2022-07-25T08:19:02.245Z,53.30
2022-07-25T08:21:29.014Z,50.80
2022-07-25T08:23:55.823Z,50.40
2022-07-25T08:26:22.593Z,51.00
2022-07-25T08:28:59.884Z,48.20
2022-07-25T08:31:36.198Z,48.00
2022-07-25T08:34:03.808Z,47.80
2022-07-25T08:36:34.818Z,47.80
2022-07-25T08:39:01.910Z,46.60
2022-07-25T08:41:29.111Z,47.70
2022-07-25T08:43:56.112Z,45.90
2022-07-25T08:46:23.405Z,45.10
2022-07-25T08:48:52.095Z,45.20
2022-07-25T08:51:19.295Z,46.10
2022-07-25T08:53:48.614Z,46.70
2022-07-25T08:56:20.810Z,46.60
2022-07-25T08:58:49.376Z,46.30
2022-07-25T09:01:16.334Z,46.90
2022-07-25T09:03:43.906Z,46.90
2022-07-25T09:06:28.891Z,43.00
2022-07-25T09:08:58.712Z,43.60
2022-07-25T09:11:31.242Z,45.10
2022-07-25T09:14:05.719Z,46.30
2022-07-25T09:16:36.107Z,45.00
2022-07-25T09:19:15.552Z,46.20
2022-07-25T09:21:44.220Z,44.50
2022-07-25T09:24:17.650Z,44.20
2022-07-25T09:26:54.894Z,43.90
2022-07-25T09:29:28.396Z,42.80
2022-07-25T09:31:56.445Z,45.20
2022-07-25T09:34:50.265Z,45.20
2022-07-25T09:37:20.250Z,42.10
2022-07-25T09:39:49.392Z,42.90
2022-07-25T09:42:17.087Z,40.30
2022-07-25T09:44:44.614Z,40.70
2022-07-25T09:47:14.137Z,41.10
2022-07-25T09:49:45.555Z,41.80
2022-07-25T09:52:12.744Z,41.90
2022-07-25T09:54:40.688Z,42.80
2022-07-25T09:57:07.572Z,42.60
2022-07-25T09:59:35.706Z,42.70
2022-07-25T10:02:15.583Z,41.70
2022-07-25T10:04:55.012Z,43.30
2022-07-25T10:07:27.079Z,41.50
2022-07-25T10:09:57.923Z,42.20
2022-07-25T10:12:25.097Z,42.00
2022-07-25T10:15:13.404Z,41.30
2022-07-25T10:17:41.509Z,40.90
2022-07-25T10:20:10.340Z,41.50
2022-07-25T10:22:55.093Z,39.30
2022-07-25T10:25:23.064Z,40.20
2022-07-25T10:27:58.181Z,42.20
2022-07-25T10:30:28.420Z,41.90
2022-07-25T10:32:59.783Z,40.90
2022-07-25T10:35:28.063Z,42.10
2022-07-25T10:37:57.668Z,40.80
2022-07-25T10:40:40.003Z,41.10
2022-07-25T10:43:13.675Z,42.30
2022-07-25T10:45:51.826Z,40.60
2022-07-25T10:48:23.581Z,42.10
2022-07-25T10:51:06.267Z,43.30
2022-07-25T10:53:40.797Z,42.30
2022-07-25T10:56:14.116Z,42.40
2022-07-25T10:58:51.433Z,43.00
2022-07-25T11:01:39.492Z,42.70
2022-07-25T11:04:15.661Z,43.70
2022-07-25T11:06:43.095Z,41.90
2022-07-25T11:09:23.803Z,40.20
2022-07-25T11:11:58.869Z,39.80
2022-07-25T11:14:30.953Z,41.40
2022-07-25T11:16:57.773Z,39.80
2022-07-25T11:19:27.552Z,38.40
2022-07-25T11:21:57.551Z,39.70
2022-07-25T11:24:44.220Z,38.90
2022-07-25T11:27:14.652Z,38.80
2022-07-25T11:29:41.405Z,40.20
2022-07-25T11:32:10.727Z,40.80
2022-07-25T11:34:41.238Z,38.80
2022-07-25T11:37:11.892Z,37.30
2022-07-25T11:39:41.128Z,37.80
2022-07-25T11:42:19.691Z,39.90
2022-07-25T11:44:49.306Z,40.50
2022-07-25T11:47:31.139Z,38.10
2022-07-25T11:50:03.620Z,39.60
2022-07-25T11:52:35.476Z,39.10
2022-07-25T11:55:06.423Z,40.10
2022-07-25T11:57:35.720Z,39.70
2022-07-25T12:00:05.404Z,39.50
2022-07-25T12:02:38.823Z,39.00
2022-07-25T12:05:12.706Z,38.90
2022-07-25T12:07:45.318Z,39.10
2022-07-25T12:10:15.682Z,37.50
2022-07-25T12:12:55.674Z,39.30
2022-07-25T12:15:28.385Z,37.80
2022-07-25T12:17:56.782Z,38.10
2022-07-25T12:20:29.018Z,38.70
2022-07-25T12:22:58.652Z,38.00
2022-07-25T12:25:30.668Z,38.30
2022-07-25T12:27:59.014Z,39.20
2022-07-25T12:30:28.546Z,38.40
2022-07-25T12:32:56.756Z,38.30
2022-07-25T12:35:24.115Z,39.80
2022-07-25T12:37:51.664Z,38.50
2022-07-25T12:40:19.142Z,36.40
2022-07-25T12:42:46.282Z,36.40
2022-07-25T12:45:15.425Z,37.30
2022-07-25T12:47:43.835Z,37.70
2022-07-25T12:50:10.724Z,37.70
2022-07-25T12:52:38.377Z,35.90
2022-07-25T12:55:07.348Z,37.40
2022-07-25T12:57:36.177Z,36.40
2022-07-25T13:00:08.452Z,36.70
2022-07-25T13:02:35.594Z,36.80
2022-07-25T13:05:02.583Z,36.60
2022-07-25T13:07:29.319Z,34.90
2022-07-25T13:09:56.071Z,35.90
2022-07-25T13:12:24.068Z,34.70
2022-07-25T13:14:51.722Z,34.80
2022-07-25T13:17:22.375Z,34.50
2022-07-25T13:19:51.924Z,35.90
2022-07-25T13:22:18.773Z,36.30
2022-07-25T13:24:45.496Z,35.40
2022-07-25T13:27:12.297Z,35.10
2022-07-25T13:29:39.208Z,35.20
2022-07-25T13:32:06.308Z,34.50
2022-07-25T13:34:33.264Z,34.40
2022-07-25T13:37:00.064Z,34.70
2022-07-25T13:39:27.149Z,34.70
2022-07-25T13:41:53.918Z,35.30
2022-07-25T13:44:20.824Z,33.00
2022-07-25T13:46:49.962Z,34.20
2022-07-25T13:49:18.074Z,34.10
2022-07-25T13:51:45.671Z,34.10
2022-07-25T13:54:12.871Z,32.80
2022-07-25T13:56:41.412Z,32.20
2022-07-25T13:59:08.616Z,32.70
2022-07-25T14:01:36.235Z,33.50
2022-07-25T14:04:03.240Z,32.70
2022-07-25T14:06:29.955Z,31.80
2022-07-25T14:08:56.861Z,33.50
2022-07-25T14:11:28.574Z,33.30
2022-07-25T14:13:57.778Z,33.10
2022-07-25T14:16:24.790Z,32.50
2022-07-25T14:18:51.753Z,31.50
2022-07-25T14:21:18.610Z,31.60
2022-07-25T14:23:45.437Z,32.80
2022-07-25T14:26:12.837Z,33.10
2022-07-25T14:28:39.619Z,32.20
2022-07-25T14:31:06.455Z,32.70
2022-07-25T14:33:37.810Z,32.80
2022-07-25T14:36:04.752Z,32.90
2022-07-25T14:38:31.949Z,33.20
2022-07-25T14:40:58.862Z,33.00
2022-07-25T14:43:25.606Z,33.40
2022-07-25T14:45:52.422Z,35.30
2022-07-25T14:48:19.134Z,33.90
2022-07-25T14:50:45.982Z,35.60
2022-07-25T14:53:13.467Z,32.30
2022-07-25T14:55:40.391Z,33.20
2022-07-25T14:58:07.503Z,33.90
2022-07-25T15:00:34.562Z,34.90
2022-07-25T15:03:01.655Z,35.10
2022-07-25T15:05:28.416Z,36.60
2022-07-25T15:07:55.151Z,34.60
2022-07-25T15:10:22.307Z,35.40
2022-07-25T15:12:54.289Z,36.80
2022-07-25T15:15:29.157Z,38.70
2022-07-25T15:17:55.999Z,36.70
2022-07-25T15:20:22.742Z,38.30
2022-07-25T15:22:49.619Z,37.80
2022-07-25T15:25:57.973Z,40.00
2022-07-25T15:28:03.380Z,40.40
2022-07-25T15:30:30.353Z,42.90
2022-07-25T15:32:57.391Z,45.30
2022-07-25T15:35:24.325Z,42.20
2022-07-25T15:37:51.114Z,41.40
2022-07-25T15:40:18.000Z,39.10
2022-07-25T15:42:44.760Z,38.50
2022-07-25T15:47:59.968Z,39.70
2022-07-25T15:50:26.792Z,40.70
2022-07-25T15:52:53.602Z,41.10
2022-07-25T15:55:20.558Z,40.20
2022-07-25T15:57:47.421Z,38.40
2022-07-25T16:00:14.523Z,39.30
2022-07-25T16:02:41.343Z,38.00
2022-07-25T16:05:08.427Z,38.60
2022-07-25T16:07:35.139Z,40.60
2022-07-25T16:10:01.836Z,41.90
2022-07-25T16:12:28.910Z,40.00
2022-07-25T16:14:56.127Z,41.50
2022-07-25T16:17:23.706Z,42.80
2022-07-25T16:19:50.428Z,43.60
2022-07-25T16:22:17.238Z,45.00
2022-07-25T16:24:44.337Z,44.10
2022-07-25T16:27:11.437Z,44.70
2022-07-25T16:29:39.238Z,45.70
2022-07-25T16:32:07.175Z,45.00
2022-07-25T16:34:34.196Z,45.90
2022-07-25T16:37:02.461Z,43.70
2022-07-25T16:39:29.897Z,45.80
2022-07-25T16:41:57.391Z,46.70
2022-07-25T16:44:24.094Z,47.80
2022-07-25T16:46:51.050Z,48.20
2022-07-25T16:49:17.997Z,48.30
2022-07-25T16:51:45.315Z,45.40
2022-07-25T16:54:12.461Z,44.90
2022-07-25T16:56:39.790Z,45.70
2022-07-25T16:59:08.010Z,46.30
2022-07-25T17:01:35.676Z,45.50
2022-07-25T17:04:02.934Z,45.90
2022-07-25T17:06:30.029Z,46.10
2022-07-25T17:08:56.869Z,46.70
2022-07-25T17:11:23.649Z,46.60
2022-07-25T17:13:50.394Z,47.20
2022-07-25T17:16:17.287Z,47.70
2022-07-25T17:18:44.167Z,48.20
2022-07-25T17:21:10.920Z,48.30
2022-07-25T17:23:37.749Z,46.80
2022-07-25T17:26:05.413Z,47.30
2022-07-25T17:28:32.336Z,47.70
2022-07-25T17:30:59.232Z,48.40
2022-07-25T17:33:26.426Z,47.90
2022-07-25T17:35:53.413Z,47.60
2022-07-25T17:38:25.829Z,47.60
2022-07-25T17:40:54.093Z,48.10
2022-07-25T17:43:20.905Z,48.70
2022-07-25T17:45:47.953Z,47.80
2022-07-25T17:48:15.644Z,47.70
2022-07-25T17:50:42.527Z,48.10
2022-07-25T17:53:09.263Z,48.50
2022-07-25T17:55:39.014Z,48.60
2022-07-25T17:58:06.249Z,48.80
2022-07-25T18:00:33.113Z,48.90
2022-07-25T18:03:00.216Z,48.90
2022-07-25T18:05:27.629Z,49.00
2022-07-25T18:07:54.483Z,49.20
2022-07-25T18:10:21.972Z,50.00
2022-07-25T18:12:49.053Z,49.50
2022-07-25T18:15:16.128Z,49.30
2022-07-25T18:17:48.011Z,49.70
2022-07-25T18:20:16.151Z,49.90
2022-07-25T18:22:43.099Z,50.40
2022-07-25T18:25:11.968Z,50.10
2022-07-25T18:27:41.991Z,50.40
2022-07-25T18:30:10.578Z,50.80
2022-07-25T18:32:38.110Z,51.20
2022-07-25T18:35:05.732Z,51.40
2022-07-25T18:37:32.468Z,52.70
2022-07-25T18:39:59.320Z,52.60
2022-07-25T18:42:29.753Z,53.30
2022-07-25T18:44:57.197Z,53.30
2022-07-25T18:47:26.392Z,53.20
2022-07-25T18:49:59.302Z,53.70
2022-07-25T18:52:26.706Z,53.90
2022-07-25T18:54:53.427Z,56.80
2022-07-25T18:57:20.533Z,61.30
2022-07-25T18:59:47.752Z,68.50
2022-07-25T19:02:14.584Z,96.60
2022-07-25T19:04:41.505Z,99.90
2022-07-25T19:07:09.164Z,99.90
2022-07-25T19:09:36.116Z,99.90
2022-07-25T19:12:03.112Z,99.90
2022-07-25T19:14:30.699Z,99.90
2022-07-25T19:16:58.729Z,99.90
2022-07-25T19:19:26.795Z,99.90
2022-07-25T19:21:53.746Z,99.90
2022-07-25T19:24:21.303Z,99.90
2022-07-25T19:26:48.961Z,99.90
2022-07-25T19:29:16.692Z,99.90
2022-07-25T19:31:44.616Z,99.90
2022-07-25T19:34:12.089Z,99.90
2022-07-25T19:36:39.282Z,99.90
2022-07-25T19:39:06.252Z,99.90
2022-07-25T19:41:33.418Z,99.90
2022-07-25T19:44:00.226Z,99.90
2022-07-25T19:46:31.043Z,99.90
2022-07-25T19:48:58.272Z,99.90
2022-07-25T19:51:25.594Z,99.90
2022-07-25T19:53:52.568Z,99.90
2022-07-25T19:56:20.359Z,99.90
2022-07-25T19:58:47.374Z,99.90
2022-07-25T20:01:14.343Z,99.90
2022-07-25T20:03:41.660Z,99.90
2022-07-25T20:06:09.093Z,99.90
2022-07-25T20:08:39.228Z,99.90
2022-07-25T20:11:07.244Z,99.90
2022-07-25T20:13:34.603Z,99.90
2022-07-25T20:16:03.662Z,99.90
2022-07-25T20:18:30.880Z,99.90
2022-07-25T20:20:57.793Z,99.90
2022-07-25T20:23:25.584Z,99.90
2022-07-25T20:25:52.658Z,99.90
2022-07-25T20:28:19.447Z,99.90
2022-07-25T20:30:46.419Z,99.90
2022-07-25T20:33:13.504Z,99.90
2022-07-25T20:35:40.366Z,99.90
2022-07-25T20:38:09.815Z,99.90
2022-07-25T20:40:40.043Z,99.90
2022-07-25T20:43:09.896Z,99.90
2022-07-25T20:45:36.971Z,99.90
2022-07-25T20:48:05.152Z,99.90
2022-07-25T20:50:32.277Z,99.90
2022-07-25T20:52:59.081Z,99.90
2022-07-25T20:55:28.394Z,99.90
2022-07-25T20:57:55.235Z,99.90
2022-07-25T21:00:22.828Z,99.90
2022-07-25T21:02:49.713Z,99.90
2022-07-25T21:05:16.559Z,99.90
2022-07-25T21:07:43.528Z,99.90
2022-07-25T21:10:11.000Z,99.90
2022-07-25T21:12:38.745Z,99.90
2022-07-25T21:15:07.271Z,99.90
2022-07-25T21:17:34.766Z,99.90
2022-07-25T21:20:01.699Z,99.90
2022-07-25T21:22:28.611Z,99.90
2022-07-25T21:24:55.375Z,99.90
2022-07-25T21:27:22.403Z,99.90
2022-07-25T21:29:49.207Z,99.90
2022-07-25T21:32:17.261Z,99.90
2022-07-25T21:34:45.596Z,99.90
2022-07-25T21:37:13.091Z,99.90
2022-07-25T21:39:39.860Z,99.90
2022-07-25T21:42:10.013Z,99.90
2022-07-25T21:44:41.043Z,99.90
2022-07-25T21:47:09.121Z,99.90
2022-07-25T21:49:55.496Z,99.90
2022-07-25T21:52:30.135Z,99.90
2022-07-25T21:55:03.323Z,99.90
2022-07-25T21:57:30.434Z,99.90
2022-07-25T21:59:57.117Z,99.90
2022-07-25T22:02:23.822Z,99.90
2022-07-25T22:04:50.897Z,99.90
2022-07-25T22:07:18.507Z,99.90
2022-07-25T22:09:45.565Z,99.90
2022-07-25T22:12:12.715Z,99.90
2022-07-25T22:14:39.425Z,99.90
2022-07-25T22:17:06.215Z,99.90
2022-07-25T22:19:33.329Z,99.90
2022-07-25T22:22:00.544Z,99.90
2022-07-25T22:24:27.466Z,99.90
2022-07-25T22:26:54.249Z,99.90
2022-07-25T22:29:21.056Z,99.90
2022-07-25T22:31:47.814Z,99.90
2022-07-25T22:34:14.587Z,99.90
2022-07-25T22:36:41.449Z,99.90
2022-07-25T22:39:08.767Z,99.90
2022-07-25T22:41:35.797Z,99.90
2022-07-25T22:44:03.194Z,99.90
2022-07-25T22:46:30.803Z,99.90
2022-07-25T22:48:58.951Z,99.90
2022-07-25T22:51:26.566Z,99.90
2022-07-25T22:53:53.578Z,99.90
2022-07-25T22:56:20.385Z,99.90
2022-07-25T22:58:48.919Z,99.90
2022-07-25T23:01:17.459Z,99.90
2022-07-25T23:03:44.393Z,99.90
2022-07-25T23:06:11.737Z,99.90
2022-07-25T23:08:38.703Z,99.90
2022-07-25T23:11:05.965Z,99.90
2022-07-25T23:13:33.761Z,99.90
2022-07-25T23:16:00.673Z,99.90
2022-07-25T23:18:28.734Z,99.90
2022-07-25T23:20:55.403Z,99.90
2022-07-25T23:23:22.433Z,99.90
2022-07-25T23:25:49.205Z,99.90
2022-07-25T23:28:15.990Z,99.90
2022-07-25T23:30:42.692Z,99.90
2022-07-25T23:33:09.586Z,99.90
2022-07-25T23:35:36.412Z,99.90
2022-07-25T23:38:04.315Z,99.90
2022-07-25T23:40:31.216Z,99.90
2022-07-25T23:42:57.905Z,99.90
2022-07-25T23:45:27.857Z,99.90
2022-07-25T23:47:55.594Z,99.90
2022-07-25T23:50:23.364Z,99.90
2022-07-25T23:52:50.416Z,99.90
2022-07-25T23:55:17.342Z,99.90
2022-07-25T23:57:44.127Z,99.90
